createdAt,value
2023-05-21T00:00:53.796Z,14.70
2023-05-21T00:03:21.134Z,14.70
2023-05-21T00:05:50.103Z,14.70
2023-05-21T00:08:19.181Z,14.60
2023-05-21T00:10:46.080Z,14.60
2023-05-21T00:13:12.881Z,14.60
2023-05-21T00:15:42.460Z,14.60
2023-05-21T00:18:11.939Z,14.60
2023-05-21T00:20:38.898Z,14.60
2023-05-21T00:23:05.662Z,14.70
2023-05-21T00:25:32.409Z,14.50
2023-05-21T00:27:59.153Z,14.50
2023-05-21T00:30:25.887Z,14.50
2023-05-21T00:35:19.901Z,14.40
2023-05-21T00:37:48.967Z,14.40
2023-05-21T00:40:16.283Z,14.30
2023-05-21T00:42:46.507Z,14.30
2023-05-21T00:45:17.021Z,14.30
2023-05-21T00:47:44.513Z,14.30
2023-05-21T00:50:12.363Z,14.30
2023-05-21T00:52:41.975Z,14.30
2023-05-21T00:55:10.085Z,14.20
2023-05-21T00:57:39.532Z,14.20
2023-05-21T01:00:10.635Z,14.20
2023-05-21T01:02:39.733Z,14.10
2023-05-21T01:05:07.170Z,14.20
2023-05-21T01:07:35.696Z,14.10
2023-05-21T01:10:08.266Z,14.10
2023-05-21T01:12:35.795Z,14.10
2023-05-21T01:15:04.160Z,14.10
2023-05-21T01:17:34.308Z,14.10
2023-05-21T01:20:02.126Z,14.00
2023-05-21T01:22:33.979Z,14.00
2023-05-21T01:25:02.777Z,14.00
2023-05-21T01:27:29.748Z,14.00
2023-05-21T01:29:59.325Z,14.00
2023-05-21T01:32:41.751Z,13.90
2023-05-21T01:35:10.315Z,13.90
2023-05-21T01:37:52.188Z,14.00
2023-05-21T01:40:27.508Z,14.00
2023-05-21T01:42:54.443Z,14.00
2023-05-21T01:45:23.920Z,13.90
2023-05-21T01:47:55.196Z,13.80
2023-05-21T01:50:24.649Z,13.90
2023-05-21T01:53:00.992Z,13.80
2023-05-21T01:55:28.254Z,13.80
2023-05-21T01:57:55.882Z,13.80
2023-05-21T02:00:23.960Z,13.90
2023-05-21T02:02:51.770Z,13.80
2023-05-21T02:05:18.814Z,13.70
2023-05-21T02:07:47.394Z,13.70
2023-05-21T02:10:14.295Z,13.70
2023-05-21T02:12:41.028Z,13.70
2023-05-21T02:15:07.960Z,13.70
2023-05-21T02:17:35.354Z,13.70
2023-05-21T02:20:11.534Z,13.70
2023-05-21T02:22:40.001Z,13.70
2023-05-21T02:25:12.173Z,13.70
2023-05-21T02:27:40.645Z,13.60
2023-05-21T02:30:11.381Z,13.70
2023-05-21T02:32:42.621Z,13.70
2023-05-21T02:35:11.763Z,13.70
2023-05-21T02:37:40.448Z,13.60
2023-05-21T02:40:08.186Z,13.60
2023-05-21T02:42:36.551Z,13.60
2023-05-21T02:45:03.480Z,13.70
2023-05-21T02:47:32.683Z,13.70
2023-05-21T02:50:02.100Z,13.70
2023-05-21T02:52:31.402Z,13.70
2023-05-21T02:54:58.137Z,13.60
2023-05-21T02:57:27.341Z,13.70
2023-05-21T02:59:56.637Z,13.60
2023-05-21T03:02:26.035Z,13.60
2023-05-21T03:04:57.238Z,13.60
2023-05-21T03:07:24.374Z,13.60
2023-05-21T03:09:51.199Z,13.60
2023-05-21T03:12:17.915Z,13.70
2023-05-21T03:14:46.443Z,13.80
2023-05-21T03:17:17.030Z,13.70
2023-05-21T03:19:44.736Z,13.60
2023-05-21T03:22:11.606Z,13.60
2023-05-21T03:24:39.393Z,13.60
2023-05-21T03:27:07.054Z,13.50
2023-05-21T03:29:34.768Z,13.50
2023-05-21T03:32:02.176Z,13.40
2023-05-21T03:34:28.982Z,13.40
2023-05-21T03:36:58.185Z,13.50
2023-05-21T03:39:24.937Z,13.60
2023-05-21T03:41:51.667Z,13.60
2023-05-21T03:44:18.411Z,13.70
2023-05-21T03:46:45.634Z,13.70
2023-05-21T03:49:12.406Z,13.60
2023-05-21T03:51:41.564Z,13.60
2023-05-21T03:54:08.295Z,13.50
2023-05-21T03:56:35.009Z,13.50
2023-05-21T03:59:01.756Z,13.50
2023-05-21T04:01:30.753Z,13.50
2023-05-21T04:03:59.928Z,13.50
2023-05-21T04:06:26.760Z,13.50
2023-05-21T04:08:53.609Z,13.50
2023-05-21T04:11:20.887Z,13.50
2023-05-21T04:13:49.775Z,13.50
2023-05-21T04:16:19.265Z,13.50
2023-05-21T04:18:46.866Z,13.40
2023-05-21T04:21:16.296Z,13.40
2023-05-21T04:23:43.146Z,13.40
2023-05-21T04:26:09.871Z,13.40
2023-05-21T04:28:42.059Z,13.50
2023-05-21T04:31:08.899Z,13.50
2023-05-21T04:33:35.857Z,13.60
2023-05-21T04:36:03.891Z,13.70
2023-05-21T04:38:30.757Z,13.70
2023-05-21T04:40:58.749Z,13.70
2023-05-21T04:43:26.565Z,13.60
2023-05-21T04:45:54.870Z,13.70
2023-05-21T04:48:26.687Z,13.70
2023-05-21T04:50:56.760Z,13.70
2023-05-21T04:53:23.950Z,13.70
2023-05-21T04:55:52.845Z,13.70
2023-05-21T04:58:19.600Z,13.70
2023-05-21T05:00:47.012Z,13.80
2023-05-21T05:03:14.595Z,13.80
2023-05-21T05:05:41.900Z,13.80
2023-05-21T05:08:12.252Z,13.80
2023-05-21T05:10:40.621Z,13.80
2023-05-21T05:13:09.820Z,13.90
2023-05-21T05:15:36.828Z,13.90
2023-05-21T05:18:03.860Z,14.00
2023-05-21T05:20:32.953Z,14.00
2023-05-21T05:22:59.781Z,14.10
2023-05-21T05:25:26.829Z,14.20
2023-05-21T05:27:53.568Z,14.20
2023-05-21T05:30:21.022Z,14.20
2023-05-21T05:32:47.815Z,14.20
2023-05-21T05:35:14.603Z,14.40
2023-05-21T05:37:41.461Z,14.50
2023-05-21T05:40:13.321Z,14.50
2023-05-21T05:42:42.567Z,14.50
2023-05-21T05:45:14.489Z,14.60
2023-05-21T05:47:41.644Z,14.60
2023-05-21T05:50:10.988Z,14.60
2023-05-21T05:52:37.902Z,14.60
2023-05-21T05:55:05.279Z,14.70
2023-05-21T05:57:31.980Z,14.80
2023-05-21T05:59:58.754Z,14.90
2023-05-21T06:02:27.913Z,15.00
2023-05-21T06:04:54.809Z,14.90
2023-05-21T06:07:21.566Z,15.00
2023-05-21T06:09:48.272Z,15.00
2023-05-21T06:12:17.528Z,15.10
2023-05-21T06:14:46.024Z,15.10
2023-05-21T06:17:12.856Z,15.20
2023-05-21T06:19:45.203Z,15.20
2023-05-21T06:22:11.923Z,15.30
2023-05-21T06:24:41.156Z,15.30
2023-05-21T06:27:12.798Z,15.40
2023-05-21T06:29:40.815Z,15.40
2023-05-21T06:32:08.795Z,15.40
2023-05-21T06:34:35.568Z,15.40
2023-05-21T06:37:02.328Z,15.40
2023-05-21T06:39:29.145Z,15.50
2023-05-21T06:41:55.918Z,15.50
2023-05-21T06:44:23.012Z,15.70
2023-05-21T06:46:49.741Z,15.70
2023-05-21T06:49:16.578Z,15.80
2023-05-21T06:51:45.598Z,15.90
2023-05-21T06:54:12.371Z,16.10
2023-05-21T06:56:39.142Z,16.10
2023-05-21T06:59:06.023Z,16.20
2023-05-21T07:01:34.377Z,16.30
2023-05-21T07:04:01.217Z,16.30
2023-05-21T07:06:30.387Z,16.40
2023-05-21T07:08:57.195Z,16.40
2023-05-21T07:11:28.641Z,16.50
2023-05-21T07:13:58.204Z,16.60
2023-05-21T07:16:24.905Z,16.70
2023-05-21T07:18:51.761Z,16.80
2023-05-21T07:21:18.524Z,17.00
2023-05-21T07:23:47.688Z,17.10
2023-05-21T07:26:14.482Z,17.00
2023-05-21T07:28:45.791Z,16.90
2023-05-21T07:31:13.122Z,17.10
2023-05-21T07:33:39.973Z,17.20
2023-05-21T07:36:08.969Z,17.20
2023-05-21T07:38:38.062Z,17.20
2023-05-21T07:41:04.864Z,17.30
2023-05-21T07:43:31.950Z,17.30
2023-05-21T07:45:58.751Z,17.40
2023-05-21T07:48:26.927Z,17.40
2023-05-21T07:50:53.736Z,17.50
2023-05-21T07:53:20.694Z,17.60
2023-05-21T07:55:49.664Z,17.80
2023-05-21T07:58:23.408Z,17.90
2023-05-21T08:00:51.066Z,18.00
2023-05-21T08:03:22.908Z,18.00
2023-05-21T08:05:50.622Z,18.00
2023-05-21T08:08:18.843Z,18.00
2023-05-21T08:10:46.399Z,18.20
2023-05-21T08:13:19.288Z,18.30
2023-05-21T08:15:46.145Z,18.30
2023-05-21T08:18:12.898Z,18.30
2023-05-21T08:20:39.806Z,18.20
2023-05-21T08:23:08.754Z,18.20
2023-05-21T08:25:38.182Z,18.10
2023-05-21T08:28:05.156Z,18.10
2023-05-21T08:30:31.878Z,18.10
2023-05-21T08:32:58.842Z,18.10
2023-05-21T08:35:25.678Z,18.10
2023-05-21T08:37:52.422Z,18.10
2023-05-21T08:40:19.257Z,18.20
2023-05-21T08:42:50.249Z,18.20
2023-05-21T08:45:23.770Z,18.30
2023-05-21T08:47:57.042Z,18.40
2023-05-21T08:50:27.430Z,18.30
2023-05-21T08:52:58.771Z,18.40
2023-05-21T08:55:28.817Z,18.50
2023-05-21T08:57:55.700Z,18.70
2023-05-21T09:00:22.760Z,18.70
2023-05-21T09:02:51.083Z,18.70
2023-05-21T09:05:18.274Z,18.80
2023-05-21T09:08:00.964Z,18.90
2023-05-21T09:10:38.057Z,18.90
2023-05-21T09:13:05.527Z,18.90
2023-05-21T09:15:32.826Z,18.80
2023-05-21T09:18:02.216Z,18.90
2023-05-21T09:20:29.184Z,18.90
2023-05-21T09:23:02.541Z,18.90
2023-05-21T09:25:29.502Z,19.00
2023-05-21T09:27:56.693Z,18.90
2023-05-21T09:30:26.787Z,18.90
2023-05-21T09:33:00.037Z,18.80
2023-05-21T09:35:27.283Z,18.90
2023-05-21T09:37:57.651Z,18.90
2023-05-21T09:40:24.651Z,19.00
2023-05-21T09:42:53.315Z,19.10
2023-05-21T09:45:27.698Z,19.10
2023-05-21T09:47:56.310Z,19.20
2023-05-21T09:50:27.958Z,19.30
2023-05-21T09:52:55.616Z,19.40
2023-05-21T09:55:26.509Z,19.40
2023-05-21T09:57:55.837Z,19.40
2023-05-21T10:00:28.040Z,19.30
2023-05-21T10:02:56.423Z,19.50
2023-05-21T10:05:28.744Z,19.60
2023-05-21T10:08:04.425Z,19.90
2023-05-21T10:10:32.440Z,20.00
2023-05-21T10:13:09.044Z,20.20
2023-05-21T10:15:42.406Z,19.10
2023-05-21T10:18:10.430Z,20.10
2023-05-21T10:20:38.354Z,20.20
2023-05-21T10:23:06.023Z,20.30
2023-05-21T10:25:32.837Z,20.80
2023-05-21T10:27:59.565Z,20.60
2023-05-21T10:30:26.473Z,20.60
2023-05-21T10:32:55.918Z,20.60
2023-05-21T10:35:23.030Z,20.70
2023-05-21T10:37:51.384Z,20.80
2023-05-21T10:43:20.277Z,20.80
2023-05-21T10:46:21.470Z,20.80
2023-05-21T10:49:00.534Z,20.90
2023-05-21T10:52:08.336Z,20.90
2023-05-21T10:57:31.632Z,21.00
2023-05-21T11:02:29.640Z,21.90
2023-05-21T11:05:00.784Z,21.40
2023-05-21T11:10:39.367Z,21.50
2023-05-21T11:13:15.167Z,21.60
2023-05-21T11:16:01.449Z,21.70
2023-05-21T11:18:33.785Z,21.80
2023-05-21T11:21:10.115Z,21.70
2023-05-21T11:23:52.277Z,21.70
2023-05-21T11:26:23.223Z,21.80
2023-05-21T11:29:05.151Z,21.80
2023-05-21T11:31:38.312Z,21.90
2023-05-21T11:34:14.423Z,22.00
2023-05-21T11:36:46.437Z,21.90
2023-05-21T11:39:21.948Z,21.90
2023-05-21T11:42:04.875Z,22.00
2023-05-21T11:44:42.009Z,22.00
2023-05-21T11:47:19.055Z,22.20
2023-05-21T11:49:46.883Z,22.10
2023-05-21T11:52:15.287Z,22.10
2023-05-21T11:55:03.735Z,22.10
2023-05-21T11:57:33.364Z,22.20
2023-05-21T12:20:10.654Z,21.40
2023-05-21T12:22:42.438Z,22.50
2023-05-21T12:25:12.122Z,22.50
2023-05-21T12:27:39.294Z,22.50
2023-05-21T12:30:06.842Z,22.40
2023-05-21T12:32:33.623Z,22.60
2023-05-21T12:35:00.495Z,22.60
2023-05-21T12:37:32.515Z,22.70
2023-05-21T12:40:01.251Z,22.90
2023-05-21T12:42:35.602Z,23.00
2023-05-21T12:45:09.986Z,23.10
2023-05-21T12:47:37.229Z,23.20
2023-05-21T12:50:08.267Z,23.10
2023-05-21T12:52:35.121Z,23.20
2023-05-21T12:55:02.120Z,23.20
2023-05-21T12:57:36.272Z,23.30
2023-05-21T13:00:06.494Z,23.60
2023-05-21T13:02:35.534Z,23.50
2023-05-21T13:05:05.220Z,23.70
2023-05-21T13:10:05.647Z,23.90
2023-05-21T13:12:33.959Z,24.10
2023-05-21T13:15:04.826Z,24.20
2023-05-21T13:17:36.159Z,24.40
2023-05-21T13:20:09.132Z,24.50
2023-05-21T13:22:43.550Z,24.60
2023-05-21T13:25:15.680Z,24.60
2023-05-21T13:27:43.533Z,24.70
2023-05-21T13:30:13.102Z,24.70
2023-05-21T13:32:40.997Z,24.70
2023-05-21T13:35:11.333Z,24.70
2023-05-21T13:37:40.030Z,24.70
2023-05-21T13:40:10.890Z,24.70
2023-05-21T13:42:38.538Z,24.60
2023-05-21T13:45:06.716Z,24.60
2023-05-21T13:47:34.063Z,24.60
2023-05-21T13:50:01.167Z,24.60
2023-05-21T13:52:27.982Z,24.60
2023-05-21T13:54:54.732Z,24.70
2023-05-21T13:57:21.556Z,24.60
2023-05-21T13:59:50.594Z,24.40
2023-05-21T14:02:19.600Z,24.50
2023-05-21T14:04:48.742Z,24.60
2023-05-21T14:07:15.914Z,24.60
2023-05-21T14:09:42.695Z,24.70
2023-05-21T14:14:39.049Z,24.90
2023-05-21T14:17:06.443Z,25.10
2023-05-21T14:19:33.320Z,25.20
2023-05-21T14:22:00.298Z,25.20
2023-05-21T14:24:27.077Z,25.10
2023-05-21T14:26:56.274Z,25.00
2023-05-21T14:29:22.942Z,25.10
2023-05-21T14:31:49.877Z,25.20
2023-05-21T14:34:18.865Z,25.10
2023-05-21T14:36:50.629Z,25.20
2023-05-21T14:39:17.417Z,25.20
2023-05-21T14:41:44.269Z,25.30
2023-05-21T14:44:11.048Z,25.40
2023-05-21T14:46:39.051Z,25.40
2023-05-21T14:49:06.050Z,25.50
2023-05-21T14:51:32.811Z,25.40
2023-05-21T14:53:59.580Z,25.40
2023-05-21T14:56:29.644Z,25.40
2023-05-21T14:58:56.462Z,25.30
2023-05-21T15:01:23.744Z,25.20
2023-05-21T15:03:50.737Z,25.30
2023-05-21T15:06:17.619Z,25.10
2023-05-21T15:08:44.335Z,25.20
2023-05-21T15:11:11.510Z,25.20
2023-05-21T15:13:42.779Z,25.20
2023-05-21T15:16:09.629Z,25.40
2023-05-21T15:18:36.403Z,25.30
2023-05-21T15:21:03.220Z,25.30
2023-05-21T15:23:30.042Z,25.20
2023-05-21T15:25:56.799Z,25.10
2023-05-21T15:28:25.762Z,25.20
2023-05-21T15:30:52.469Z,25.20
2023-05-21T15:33:21.520Z,25.20
2023-05-21T15:35:48.465Z,25.20
2023-05-21T15:38:17.739Z,25.10
2023-05-21T15:40:44.625Z,25.30
